createdAt,value
2022-12-20T00:00:34.724Z,2.60
2022-12-20T00:01:34.747Z,2.40
2022-12-20T00:02:34.799Z,2.20
2022-12-20T00:03:34.603Z,2.10
2022-12-20T00:04:34.571Z,2.20
2022-12-20T00:05:34.511Z,2.20
2022-12-20T00:06:34.489Z,2.10
2022-12-20T00:07:34.432Z,2.10
2022-12-20T00:08:34.393Z,2.20
2022-12-20T00:09:34.352Z,2.30
2022-12-20T00:10:34.320Z,2.20
2022-12-20T00:11:34.274Z,2.20
2022-12-20T00:12:34.247Z,2.20
2022-12-20T00:13:34.197Z,1.90
2022-12-20T00:14:34.150Z,1.90
2022-12-20T00:15:34.110Z,2.20
2022-12-20T00:16:34.069Z,2.10
2022-12-20T00:17:34.066Z,2.10
2022-12-20T00:18:33.988Z,2.20
2022-12-20T00:19:33.961Z,2.20
2022-12-20T00:20:33.907Z,2.00
2022-12-20T00:21:33.861Z,2.10
2022-12-20T00:22:33.820Z,2.00
2022-12-20T00:23:33.779Z,2.10
2022-12-20T00:24:33.751Z,2.00
2022-12-20T00:25:33.715Z,2.00
2022-12-20T00:26:33.657Z,1.90
2022-12-20T00:27:33.615Z,1.90
2022-12-20T00:28:33.582Z,2.00
2022-12-20T00:29:33.542Z,2.10
2022-12-20T00:30:33.507Z,1.80
2022-12-20T00:31:33.531Z,1.80
2022-12-20T00:32:33.411Z,2.00
2022-12-20T00:33:33.381Z,1.90
2022-12-20T00:34:33.332Z,2.00
2022-12-20T00:35:33.296Z,2.10
2022-12-20T00:36:33.293Z,1.80
2022-12-20T00:37:33.214Z,1.90
2022-12-20T00:38:33.179Z,2.10
2022-12-20T00:39:33.142Z,2.10
2022-12-20T00:40:33.099Z,2.10
2022-12-20T00:41:33.042Z,2.00
2022-12-20T00:42:33.020Z,1.90
2022-12-20T00:43:32.969Z,2.20
2022-12-20T00:44:32.928Z,2.10
2022-12-20T00:45:32.883Z,2.00
2022-12-20T00:46:32.932Z,1.90
2022-12-20T00:47:32.801Z,2.00
2022-12-20T00:48:32.780Z,1.90
2022-12-20T00:49:32.725Z,2.10
2022-12-20T00:50:32.696Z,2.00
2022-12-20T00:51:32.691Z,2.10
2022-12-20T00:52:32.612Z,2.00
2022-12-20T00:53:32.581Z,2.20
2022-12-20T00:54:32.532Z,2.10
2022-12-20T00:55:32.494Z,2.10
2022-12-20T00:56:32.443Z,1.90
2022-12-20T00:57:32.395Z,2.50
2022-12-20T00:58:32.371Z,2.00
2022-12-20T00:59:32.323Z,2.00
2022-12-20T01:00:32.290Z,2.10
2022-12-20T01:01:32.426Z,2.00
2022-12-20T01:02:32.389Z,2.20
2022-12-20T01:03:32.201Z,2.10
2022-12-20T01:04:32.119Z,2.00
2022-12-20T01:05:32.074Z,1.90
2022-12-20T01:06:32.042Z,1.90
2022-12-20T01:07:31.988Z,1.80
2022-12-20T01:08:31.950Z,1.90
2022-12-20T01:09:31.907Z,2.10
2022-12-20T01:10:31.875Z,2.10
2022-12-20T01:11:31.824Z,2.00
2022-12-20T01:12:31.801Z,2.00
2022-12-20T01:13:31.745Z,2.00
2022-12-20T01:14:31.715Z,2.00
2022-12-20T01:15:31.663Z,2.00
2022-12-20T01:16:31.681Z,1.90
2022-12-20T01:17:31.584Z,1.90
2022-12-20T01:18:31.551Z,2.20
2022-12-20T01:19:31.498Z,2.30
2022-12-20T01:20:31.477Z,1.90
2022-12-20T01:21:31.426Z,2.00
2022-12-20T01:22:31.385Z,1.90
2022-12-20T01:23:31.340Z,2.30
2022-12-20T01:24:31.312Z,2.10
2022-12-20T01:25:31.274Z,1.90
2022-12-20T01:26:31.249Z,2.00
2022-12-20T01:27:31.177Z,1.90
2022-12-20T01:28:31.135Z,2.20
2022-12-20T01:29:31.094Z,2.20
2022-12-20T01:30:31.059Z,2.10
2022-12-20T01:31:31.047Z,2.30
2022-12-20T01:32:30.984Z,2.10
2022-12-20T01:33:30.928Z,2.10
2022-12-20T01:34:30.894Z,2.20
2022-12-20T01:35:30.861Z,2.10
2022-12-20T01:36:30.815Z,2.10
2022-12-20T01:37:30.768Z,2.10
2022-12-20T01:38:30.750Z,2.50
2022-12-20T01:39:30.696Z,2.20
2022-12-20T01:40:30.652Z,2.20
2022-12-20T01:41:30.606Z,2.20
2022-12-20T01:42:30.565Z,2.30
2022-12-20T01:43:30.526Z,2.10
2022-12-20T01:44:30.502Z,2.30
2022-12-20T01:45:30.537Z,2.30
2022-12-20T01:46:30.475Z,2.40
2022-12-20T01:47:30.360Z,2.30
2022-12-20T01:48:30.333Z,2.40
2022-12-20T01:49:30.284Z,2.30
2022-12-20T01:50:30.268Z,2.30
2022-12-20T01:51:30.202Z,2.10
2022-12-20T01:52:30.161Z,2.30
2022-12-20T01:53:30.117Z,2.40
2022-12-20T01:54:30.082Z,2.50
2022-12-20T01:55:30.035Z,2.10
2022-12-20T01:56:30.015Z,2.10
2022-12-20T01:57:29.971Z,2.10
2022-12-20T01:58:29.919Z,2.30
2022-12-20T01:59:29.880Z,2.20
2022-12-20T02:00:29.837Z,2.40
2022-12-20T02:01:29.968Z,2.20
2022-12-20T02:02:29.890Z,2.30
2022-12-20T02:03:29.718Z,2.30
2022-12-20T02:04:29.689Z,2.70
2022-12-20T02:05:29.629Z,2.40
2022-12-20T02:06:29.591Z,2.60
2022-12-20T02:07:29.557Z,2.30
2022-12-20T02:08:29.518Z,2.70
2022-12-20T02:09:29.471Z,2.60
2022-12-20T02:10:29.448Z,2.70
2022-12-20T02:11:29.396Z,2.50
2022-12-20T02:12:29.352Z,2.70
2022-12-20T02:13:29.318Z,2.40
2022-12-20T02:14:29.268Z,2.60
2022-12-20T02:15:29.222Z,2.90
2022-12-20T02:16:29.225Z,2.60
2022-12-20T02:17:29.143Z,2.80
2022-12-20T02:18:29.099Z,2.70
2022-12-20T02:19:29.064Z,2.50
2022-12-20T02:20:29.029Z,2.50
2022-12-20T02:21:28.978Z,2.70
2022-12-20T02:22:28.942Z,2.50
2022-12-20T02:23:28.918Z,2.60
2022-12-20T02:24:28.857Z,2.50
2022-12-20T02:25:28.824Z,2.80
2022-12-20T02:26:28.777Z,2.70
2022-12-20T02:27:28.747Z,3.20
2022-12-20T02:28:28.693Z,2.70
2022-12-20T02:29:28.652Z,2.90
2022-12-20T02:30:28.623Z,2.80
2022-12-20T02:31:28.688Z,2.80
2022-12-20T02:32:28.538Z,2.80
2022-12-20T02:33:28.488Z,2.80
2022-12-20T02:34:28.447Z,2.70
2022-12-20T02:35:28.407Z,2.70
2022-12-20T02:36:28.363Z,2.90
2022-12-20T02:37:28.335Z,2.60
2022-12-20T02:38:28.300Z,2.80
2022-12-20T02:39:28.240Z,3.00
2022-12-20T02:40:28.212Z,3.00
2022-12-20T02:41:28.155Z,2.70
2022-12-20T02:42:28.127Z,2.90
2022-12-20T02:43:28.092Z,2.70
2022-12-20T02:44:28.038Z,2.90
2022-12-20T02:45:27.992Z,2.80
2022-12-20T02:46:28.080Z,2.70
2022-12-20T02:47:27.910Z,2.60
2022-12-20T02:48:27.875Z,3.00
2022-12-20T02:49:27.848Z,2.80
2022-12-20T02:50:27.789Z,2.70
2022-12-20T02:51:27.752Z,2.70
2022-12-20T02:52:27.716Z,2.70
2022-12-20T02:53:27.664Z,2.70
2022-12-20T02:54:27.628Z,2.90
2022-12-20T02:55:27.593Z,2.80
2022-12-20T02:56:27.548Z,2.70
2022-12-20T02:57:27.504Z,2.90
2022-12-20T02:58:27.461Z,3.00
2022-12-20T02:59:27.421Z,3.00
2022-12-20T03:00:27.381Z,2.90
2022-12-20T03:01:27.439Z,2.80
2022-12-20T03:02:27.493Z,2.60
2022-12-20T03:03:27.365Z,2.70
2022-12-20T03:04:27.211Z,3.10
2022-12-20T03:05:27.173Z,3.10
2022-12-20T03:06:27.129Z,2.80
2022-12-20T03:07:27.414Z,3.30
2022-12-20T03:08:27.065Z,3.20
2022-12-20T03:09:27.004Z,2.90
2022-12-20T03:10:26.988Z,3.10
2022-12-20T03:11:26.930Z,3.20
2022-12-20T03:12:26.882Z,3.40
2022-12-20T03:13:26.871Z,3.40
2022-12-20T03:14:26.817Z,3.10
2022-12-20T03:15:26.768Z,3.30
2022-12-20T03:16:26.798Z,3.50
2022-12-20T03:17:26.679Z,3.40
2022-12-20T03:18:26.633Z,3.60
2022-12-20T03:19:26.619Z,3.30
2022-12-20T03:20:26.556Z,3.50
2022-12-20T03:21:26.526Z,3.50
2022-12-20T03:22:26.468Z,3.30
2022-12-20T03:23:26.453Z,3.30
2022-12-20T03:24:26.406Z,3.30
2022-12-20T03:25:26.362Z,3.50
2022-12-20T03:26:26.309Z,3.40
2022-12-20T03:27:26.280Z,3.20
2022-12-20T03:28:26.217Z,3.30
2022-12-20T03:29:26.188Z,3.70
2022-12-20T03:30:26.151Z,3.70
2022-12-20T03:31:26.173Z,4.20
2022-12-20T03:32:26.086Z,4.40
2022-12-20T03:33:26.022Z,5.00
2022-12-20T03:34:25.971Z,4.80
2022-12-20T03:35:25.930Z,5.70
2022-12-20T03:36:25.902Z,6.60
2022-12-20T03:37:25.852Z,7.10
2022-12-20T03:38:25.828Z,7.10
2022-12-20T03:39:25.784Z,7.70
2022-12-20T03:40:25.719Z,7.90
2022-12-20T03:41:25.860Z,8.30
2022-12-20T03:42:25.658Z,9.10
2022-12-20T03:43:25.613Z,9.60
2022-12-20T03:44:25.606Z,10.50
2022-12-20T03:45:25.523Z,9.40
2022-12-20T03:46:25.554Z,9.00
2022-12-20T03:47:25.433Z,9.40
2022-12-20T03:48:25.389Z,9.10
2022-12-20T03:49:25.365Z,8.70
2022-12-20T03:50:25.322Z,9.10
2022-12-20T03:51:25.276Z,8.40
2022-12-20T03:52:25.225Z,8.40
2022-12-20T03:53:25.195Z,7.80
2022-12-20T03:54:25.139Z,7.50
2022-12-20T03:55:25.099Z,7.20
2022-12-20T03:56:25.074Z,7.00
2022-12-20T03:57:25.023Z,6.90
2022-12-20T03:58:24.968Z,7.50
2022-12-20T03:59:24.935Z,7.30
2022-12-20T04:00:24.889Z,6.90
2022-12-20T04:01:25.077Z,6.80
2022-12-20T04:02:25.050Z,7.90
2022-12-20T04:03:24.830Z,7.50
2022-12-20T04:04:24.731Z,6.50
2022-12-20T04:05:24.705Z,6.40
2022-12-20T04:06:24.644Z,5.90
2022-12-20T04:07:24.634Z,6.00
2022-12-20T04:08:24.562Z,5.00
2022-12-20T04:09:24.538Z,5.60
2022-12-20T04:10:24.481Z,5.50
2022-12-20T04:11:24.435Z,5.30
2022-12-20T04:12:24.385Z,5.10
2022-12-20T04:13:24.381Z,5.20
2022-12-20T04:14:24.307Z,5.10
2022-12-20T04:15:24.311Z,5.00
2022-12-20T04:16:24.299Z,4.90
2022-12-20T04:17:24.195Z,4.70
2022-12-20T04:18:24.635Z,4.80
2022-12-20T04:19:24.137Z,5.20
2022-12-20T04:20:24.092Z,4.50
2022-12-20T04:21:24.033Z,4.90
2022-12-20T04:22:23.968Z,4.40
2022-12-20T04:23:23.929Z,4.70
2022-12-20T04:24:23.905Z,4.30
2022-12-20T04:25:23.850Z,4.30
2022-12-20T04:26:23.816Z,4.20
2022-12-20T04:27:23.797Z,4.30
2022-12-20T04:28:23.719Z,4.50
2022-12-20T04:29:23.712Z,4.20
2022-12-20T04:30:23.647Z,4.70
2022-12-20T04:31:24.597Z,4.20
2022-12-20T04:32:23.550Z,4.50
2022-12-20T04:33:23.526Z,5.10
2022-12-20T04:34:23.466Z,4.60
2022-12-20T04:35:23.435Z,5.00
2022-12-20T04:36:23.384Z,4.90
2022-12-20T04:37:23.354Z,5.00
2022-12-20T04:38:23.325Z,5.20
2022-12-20T04:39:23.275Z,5.20
2022-12-20T04:40:23.225Z,5.40
2022-12-20T04:41:23.216Z,5.00
2022-12-20T04:42:23.145Z,5.50
2022-12-20T04:43:23.102Z,5.40
2022-12-20T04:44:23.069Z,5.30
2022-12-20T04:45:23.047Z,5.60
2022-12-20T04:46:23.021Z,5.50
2022-12-20T04:47:22.938Z,5.40
2022-12-20T04:48:55.083Z,5.50
2022-12-20T04:49:22.852Z,5.60
2022-12-20T04:50:22.804Z,5.30
2022-12-20T04:51:22.785Z,5.50
2022-12-20T04:52:22.724Z,5.70
2022-12-20T04:53:22.706Z,6.00
2022-12-20T04:54:22.629Z,5.70
2022-12-20T04:55:22.592Z,5.60
2022-12-20T04:56:22.564Z,5.80
2022-12-20T04:57:22.504Z,5.60
2022-12-20T04:58:22.472Z,5.70
2022-12-20T04:59:22.432Z,5.40
2022-12-20T05:00:22.381Z,6.00
2022-12-20T05:01:22.452Z,5.90
2022-12-20T05:02:22.448Z,5.60
2022-12-20T05:03:22.313Z,5.90
2022-12-20T05:04:22.225Z,6.00
2022-12-20T05:05:22.178Z,5.90
2022-12-20T05:06:22.124Z,6.20
2022-12-20T05:07:22.092Z,5.80
2022-12-20T05:08:22.048Z,5.60
2022-12-20T05:09:22.009Z,5.60
2022-12-20T05:10:21.982Z,5.60
2022-12-20T05:11:21.931Z,5.60
2022-12-20T05:12:21.877Z,5.60
2022-12-20T05:13:21.842Z,5.20
2022-12-20T05:14:21.792Z,5.50
2022-12-20T05:15:21.755Z,5.40
2022-12-20T05:16:21.793Z,5.30
2022-12-20T05:17:21.679Z,5.00
2022-12-20T05:18:21.627Z,5.30
2022-12-20T05:19:21.584Z,5.10
2022-12-20T05:20:21.545Z,5.30
2022-12-20T05:21:21.515Z,5.60
2022-12-20T05:22:21.457Z,5.10
2022-12-20T05:23:21.424Z,4.50
2022-12-20T05:24:21.382Z,4.70
2022-12-20T05:25:21.349Z,4.40
2022-12-20T05:26:21.300Z,4.50
2022-12-20T05:27:21.274Z,4.60
2022-12-20T05:28:21.219Z,4.60
2022-12-20T05:29:21.176Z,4.60
2022-12-20T05:30:21.129Z,4.40
2022-12-20T05:31:21.159Z,4.40
2022-12-20T05:32:21.057Z,4.80
2022-12-20T05:33:21.025Z,4.90
2022-12-20T05:34:20.954Z,4.40
2022-12-20T05:35:20.919Z,4.30
2022-12-20T05:36:20.877Z,4.40
2022-12-20T05:37:20.852Z,4.50
2022-12-20T05:38:20.793Z,4.20
2022-12-20T05:39:20.783Z,3.90
2022-12-20T05:40:20.708Z,4.10
2022-12-20T05:41:20.671Z,4.50
2022-12-20T05:42:20.624Z,4.00
2022-12-20T05:43:20.629Z,4.30
2022-12-20T05:44:20.536Z,3.90
2022-12-20T05:45:20.515Z,4.20
2022-12-20T05:46:20.576Z,4.00
2022-12-20T05:47:20.426Z,3.90
2022-12-20T05:48:20.375Z,3.90
2022-12-20T05:49:20.344Z,3.90
2022-12-20T05:50:20.292Z,4.00
2022-12-20T05:51:20.272Z,3.90
2022-12-20T05:52:20.207Z,3.80
2022-12-20T05:53:20.216Z,4.00
2022-12-20T05:54:20.130Z,3.50
2022-12-20T05:55:20.088Z,3.60
2022-12-20T05:56:20.057Z,3.70
2022-12-20T05:57:20.025Z,3.30
2022-12-20T05:58:19.960Z,3.70
2022-12-20T05:59:19.922Z,3.80
2022-12-20T06:00:19.876Z,3.50
2022-12-20T06:01:19.874Z,3.40
2022-12-20T06:02:19.924Z,3.60
2022-12-20T06:03:19.883Z,3.50
2022-12-20T06:04:19.747Z,8.70
2022-12-20T06:05:19.674Z,3.40
2022-12-20T06:06:19.647Z,5.00
2022-12-20T06:07:19.600Z,3.30
2022-12-20T06:08:19.572Z,3.80
2022-12-20T06:09:19.511Z,3.30
2022-12-20T06:10:19.460Z,3.50
2022-12-20T06:11:22.050Z,3.10
2022-12-20T06:12:19.382Z,2.90
2022-12-20T06:13:19.333Z,3.40
2022-12-20T06:14:19.311Z,3.20
2022-12-20T06:15:19.260Z,3.40
2022-12-20T06:16:19.261Z,3.30
2022-12-20T06:17:19.170Z,3.20
2022-12-20T06:18:19.124Z,3.60
2022-12-20T06:19:21.716Z,8.40
2022-12-20T06:20:19.052Z,3.00
2022-12-20T06:21:19.004Z,3.40
2022-12-20T06:22:18.961Z,3.10
2022-12-20T06:23:18.920Z,3.70
2022-12-20T06:24:18.875Z,3.50
2022-12-20T06:25:18.846Z,3.10
2022-12-20T06:26:18.807Z,3.30
2022-12-20T06:27:18.794Z,3.40
2022-12-20T06:28:18.720Z,3.20
2022-12-20T06:29:18.670Z,3.00
2022-12-20T06:30:18.631Z,3.10
2022-12-20T06:31:18.674Z,3.30
2022-12-20T06:32:18.561Z,3.10
2022-12-20T06:33:18.520Z,3.10
2022-12-20T06:34:18.464Z,3.00
2022-12-20T06:35:18.428Z,3.00
2022-12-20T06:36:18.385Z,3.00
2022-12-20T06:37:18.339Z,3.00
2022-12-20T06:38:18.298Z,3.00
2022-12-20T06:39:18.271Z,3.10
2022-12-20T06:40:18.214Z,3.20
2022-12-20T06:41:18.195Z,3.30
2022-12-20T06:42:18.132Z,3.00
2022-12-20T06:43:18.095Z,3.20
2022-12-20T06:44:18.046Z,3.10
2022-12-20T06:45:18.019Z,2.90
2022-12-20T06:46:18.067Z,3.00
2022-12-20T06:47:18.005Z,3.10
2022-12-20T06:48:17.887Z,3.10
2022-12-20T06:49:17.846Z,3.20
2022-12-20T06:50:17.800Z,3.10
2022-12-20T06:51:17.785Z,3.00
2022-12-20T06:52:17.720Z,3.30
2022-12-20T06:53:17.685Z,3.00
2022-12-20T06:54:17.641Z,2.90
2022-12-20T06:55:17.598Z,3.00
2022-12-20T06:56:17.550Z,2.70
2022-12-20T06:57:17.541Z,3.00
2022-12-20T06:58:17.472Z,2.90
2022-12-20T06:59:17.455Z,3.50
2022-12-20T07:00:17.410Z,3.50
2022-12-20T07:01:17.414Z,2.90
2022-12-20T07:02:17.467Z,2.80
2022-12-20T07:03:17.464Z,3.30
2022-12-20T07:04:17.235Z,3.00
2022-12-20T07:05:17.194Z,3.50
2022-12-20T07:06:17.148Z,3.10
2022-12-20T07:07:17.129Z,3.10
2022-12-20T07:08:17.072Z,3.20
2022-12-20T07:09:17.029Z,2.70
2022-12-20T07:10:16.985Z,2.60
2022-12-20T07:11:16.951Z,3.10
2022-12-20T07:12:16.905Z,3.00
2022-12-20T07:13:16.861Z,2.80
2022-12-20T07:14:16.820Z,2.70
2022-12-20T07:15:16.787Z,2.80
2022-12-20T07:16:16.777Z,2.90
2022-12-20T07:17:16.698Z,2.90
2022-12-20T07:18:16.640Z,2.80
2022-12-20T07:19:16.619Z,2.70
2022-12-20T07:20:16.578Z,2.90
2022-12-20T07:21:16.524Z,2.90
2022-12-20T07:22:16.500Z,3.10
2022-12-20T07:23:16.461Z,2.90
2022-12-20T07:24:16.406Z,2.80
2022-12-20T07:25:16.358Z,2.90
2022-12-20T07:26:16.320Z,2.90
2022-12-20T07:27:16.281Z,2.80
2022-12-20T07:28:16.231Z,2.90
2022-12-20T07:29:16.416Z,3.00
2022-12-20T07:30:16.156Z,2.90
2022-12-20T07:31:16.109Z,2.90
2022-12-20T07:32:16.234Z,3.00
2022-12-20T07:33:16.039Z,2.90
2022-12-20T07:34:15.984Z,2.60
2022-12-20T07:35:15.951Z,3.00
2022-12-20T07:36:15.917Z,2.70
2022-12-20T07:37:15.867Z,3.20
2022-12-20T07:38:15.891Z,3.80
2022-12-20T07:39:15.776Z,2.90
2022-12-20T07:40:15.754Z,3.00
2022-12-20T07:41:15.711Z,2.70
2022-12-20T07:42:15.742Z,3.00
2022-12-20T07:43:15.616Z,3.10
2022-12-20T07:44:15.580Z,3.00
2022-12-20T07:45:15.600Z,3.40
2022-12-20T07:46:15.558Z,3.00
2022-12-20T07:47:17.686Z,3.10
2022-12-20T07:48:19.788Z,3.00
2022-12-20T07:49:15.360Z,3.10
2022-12-20T07:50:15.341Z,2.80
2022-12-20T07:51:15.285Z,2.90
2022-12-20T07:52:15.264Z,3.10
2022-12-20T07:53:15.214Z,3.20
2022-12-20T07:54:15.180Z,3.00
2022-12-20T07:55:15.149Z,3.00
2022-12-20T07:56:15.084Z,3.10
2022-12-20T07:57:15.156Z,3.20
2022-12-20T07:58:14.999Z,3.00
2022-12-20T07:59:14.963Z,3.20
2022-12-20T08:00:14.918Z,3.00
2022-12-20T08:01:14.925Z,3.40
2022-12-20T08:02:15.080Z,3.20
2022-12-20T08:03:14.961Z,3.10
2022-12-20T08:04:14.758Z,3.20
2022-12-20T08:05:14.716Z,3.10
2022-12-20T08:06:14.660Z,3.10
2022-12-20T08:07:14.628Z,2.90
2022-12-20T08:10:17.275Z,3.40
2022-12-20T08:10:46.590Z,3.30
2022-12-20T08:11:46.557Z,3.10
2022-12-20T08:12:46.508Z,3.20
2022-12-20T08:13:47.521Z,3.60
2022-12-20T08:14:46.417Z,3.50
2022-12-20T08:15:46.369Z,3.30
2022-12-20T08:16:46.410Z,3.60
2022-12-20T08:17:46.311Z,3.40
2022-12-20T08:18:46.248Z,3.30
2022-12-20T08:19:46.207Z,3.40
2022-12-20T08:20:46.169Z,3.40
2022-12-20T08:21:46.121Z,3.20
2022-12-20T08:22:46.087Z,3.40
2022-12-20T08:23:46.048Z,3.10
2022-12-20T08:24:46.000Z,3.00
2022-12-20T08:25:45.977Z,3.10
2022-12-20T08:26:45.935Z,3.30
2022-12-20T08:27:45.879Z,2.90
2022-12-20T08:28:45.834Z,3.20
2022-12-20T08:29:45.805Z,3.00
2022-12-20T08:30:45.786Z,3.00
2022-12-20T08:31:50.098Z,3.00
2022-12-20T08:32:45.676Z,3.10
2022-12-20T08:33:45.628Z,2.60
2022-12-20T08:34:45.630Z,2.80
2022-12-20T08:35:45.560Z,2.80
2022-12-20T08:36:45.504Z,2.70
2022-12-20T08:37:45.473Z,2.70
2022-12-20T08:38:45.445Z,2.80
2022-12-20T08:39:45.388Z,2.70
2022-12-20T08:40:45.341Z,2.80
2022-12-20T08:41:45.308Z,2.80
2022-12-20T08:42:45.256Z,2.80
2022-12-20T08:43:45.224Z,2.80
2022-12-20T08:44:45.199Z,2.90
2022-12-20T08:45:45.148Z,2.70
2022-12-20T08:46:45.164Z,2.50
2022-12-20T08:47:45.063Z,2.90
2022-12-20T08:48:45.012Z,2.80
2022-12-20T08:49:47.937Z,2.60
2022-12-20T08:50:44.970Z,2.60
2022-12-20T08:51:44.949Z,2.90
2022-12-20T08:52:44.849Z,2.80
2022-12-20T08:53:44.814Z,2.90
2022-12-20T08:54:44.767Z,2.80
2022-12-20T08:55:44.725Z,3.00
2022-12-20T08:56:44.682Z,3.30
2022-12-20T08:57:44.650Z,3.10
2022-12-20T08:58:44.623Z,3.00
2022-12-20T08:59:44.556Z,3.10
2022-12-20T09:00:44.523Z,3.00
2022-12-20T09:01:44.603Z,2.90
2022-12-20T09:02:44.531Z,2.90
2022-12-20T09:03:44.515Z,3.20
2022-12-20T09:04:44.367Z,3.20
2022-12-20T09:05:44.314Z,3.00
2022-12-20T09:06:44.277Z,2.60
2022-12-20T09:07:44.230Z,2.70
2022-12-20T09:08:44.198Z,2.70
2022-12-20T09:09:44.162Z,2.50
2022-12-20T09:10:44.120Z,2.90
2022-12-20T09:11:44.066Z,2.60
2022-12-20T09:12:44.030Z,2.90
2022-12-20T09:13:44.772Z,3.10
2022-12-20T09:14:43.944Z,2.90
2022-12-20T09:15:43.985Z,2.80
2022-12-20T09:16:43.875Z,2.80
2022-12-20T09:17:43.817Z,2.70
2022-12-20T09:18:43.789Z,2.70
2022-12-20T09:19:43.738Z,2.90
2022-12-20T09:20:43.696Z,2.90
2022-12-20T09:21:43.673Z,2.60
2022-12-20T09:22:43.620Z,2.70
2022-12-20T09:23:43.572Z,2.50
2022-12-20T09:24:43.571Z,2.60
2022-12-20T09:25:46.500Z,2.60
2022-12-20T09:26:43.459Z,2.60
2022-12-20T09:27:43.426Z,2.50
2022-12-20T09:28:43.382Z,2.90
2022-12-20T09:29:43.328Z,2.90
2022-12-20T09:30:43.310Z,2.50
2022-12-20T09:31:43.274Z,2.70
2022-12-20T09:32:43.212Z,2.50
2022-12-20T09:33:43.180Z,2.80
2022-12-20T09:34:43.127Z,2.70
2022-12-20T09:35:43.085Z,2.70
2022-12-20T09:36:43.044Z,2.30
2022-12-20T09:37:43.001Z,2.80
2022-12-20T09:38:42.964Z,2.70
2022-12-20T09:39:42.929Z,2.70
2022-12-20T09:40:42.885Z,2.50
2022-12-20T09:41:42.839Z,2.60
2022-12-20T09:42:42.797Z,2.70
2022-12-20T09:43:42.754Z,2.80
2022-12-20T09:44:42.716Z,2.70
2022-12-20T09:45:42.688Z,2.80
2022-12-20T09:46:42.703Z,2.60
2022-12-20T09:47:42.591Z,2.90
2022-12-20T09:48:42.551Z,2.90
2022-12-20T09:49:42.510Z,2.90
2022-12-20T09:50:42.472Z,2.60
2022-12-20T09:51:42.449Z,2.60
2022-12-20T09:52:42.390Z,2.60
2022-12-20T09:53:42.352Z,2.80
2022-12-20T09:54:42.301Z,2.80
2022-12-20T09:55:42.261Z,2.50
2022-12-20T09:56:42.247Z,2.90
2022-12-20T09:57:42.210Z,2.70
2022-12-20T09:58:42.159Z,2.70
2022-12-20T09:59:47.537Z,2.80
2022-12-20T10:00:42.073Z,2.90
2022-12-20T10:01:42.044Z,2.90
2022-12-20T10:03:00.125Z,2.60
2022-12-20T10:03:42.190Z,2.50
2022-12-20T10:04:42.161Z,2.90
2022-12-20T10:05:42.243Z,3.00
2022-12-20T10:06:41.867Z,2.80
2022-12-20T10:07:41.778Z,2.70
2022-12-20T10:08:41.747Z,2.90
2022-12-20T10:09:41.699Z,2.60
2022-12-20T10:10:41.655Z,2.80
2022-12-20T10:11:49.920Z,2.80
2022-12-20T10:12:41.565Z,2.80
2022-12-20T10:13:41.572Z,2.70
2022-12-20T10:14:41.495Z,2.70
2022-12-20T10:15:41.533Z,2.50
2022-12-20T10:16:41.401Z,2.60
2022-12-20T10:17:41.368Z,2.90
2022-12-20T10:18:41.333Z,2.60
2022-12-20T10:19:41.284Z,2.70
2022-12-20T10:20:41.249Z,2.60
2022-12-20T10:21:41.200Z,2.70
2022-12-20T10:22:41.158Z,2.70
2022-12-20T10:23:41.158Z,2.80
2022-12-20T10:24:41.079Z,2.80
2022-12-20T10:25:41.040Z,2.90
2022-12-20T10:26:40.994Z,2.80
2022-12-20T10:27:40.958Z,2.70
2022-12-20T10:28:40.913Z,2.70
2022-12-20T10:29:40.890Z,2.70
2022-12-20T10:30:40.831Z,2.50
2022-12-20T10:31:40.855Z,2.80
2022-12-20T10:32:40.767Z,2.90
2022-12-20T10:33:40.714Z,2.60
2022-12-20T10:34:46.663Z,2.80
2022-12-20T10:35:40.643Z,2.60
2022-12-20T10:36:40.594Z,2.60
2022-12-20T10:37:44.375Z,2.80
2022-12-20T10:38:40.506Z,2.70
2022-12-20T10:39:40.466Z,2.70
2022-12-20T10:41:10.649Z,2.60
2022-12-20T10:41:40.389Z,2.70
2022-12-20T10:42:43.131Z,2.60
2022-12-20T10:43:40.306Z,2.70
2022-12-20T10:44:40.267Z,2.60
2022-12-20T10:45:40.223Z,2.80
2022-12-20T10:46:40.209Z,2.60
2022-12-20T10:47:40.143Z,2.60
2022-12-20T10:48:40.134Z,2.60
2022-12-20T10:49:40.061Z,2.60
2022-12-20T10:50:40.044Z,2.60
2022-12-20T10:51:39.979Z,2.50
2022-12-20T10:52:39.947Z,2.60
2022-12-20T10:53:39.899Z,2.70
2022-12-20T10:54:39.864Z,2.50
2022-12-20T10:55:39.813Z,2.50
2022-12-20T10:56:39.777Z,2.50
2022-12-20T10:57:39.763Z,2.50
2022-12-20T10:58:39.698Z,2.50
2022-12-20T10:59:39.653Z,2.50
2022-12-20T11:00:39.623Z,2.70
2022-12-20T11:01:39.727Z,2.70
2022-12-20T11:02:42.142Z,2.70
2022-12-20T11:03:39.564Z,2.60
2022-12-20T11:04:39.469Z,2.90
2022-12-20T11:05:39.413Z,2.70
2022-12-20T11:06:39.387Z,2.40
2022-12-20T11:07:41.297Z,2.50
2022-12-20T11:08:49.923Z,2.80
2022-12-20T11:09:39.252Z,2.40
2022-12-20T11:10:39.227Z,2.60
2022-12-20T11:11:39.172Z,2.30
2022-12-20T11:12:39.128Z,2.40
2022-12-20T11:13:39.089Z,2.40
2022-12-20T11:14:40.007Z,2.60
2022-12-20T11:15:39.007Z,2.50
2022-12-20T11:16:39.050Z,2.30
2022-12-20T11:17:38.930Z,2.50
2022-12-20T11:18:38.897Z,2.70
2022-12-20T11:19:38.862Z,2.50
2022-12-20T11:20:38.803Z,2.50
2022-12-20T11:21:38.783Z,2.60
2022-12-20T11:22:38.724Z,2.60
2022-12-20T11:23:38.685Z,2.30
2022-12-20T11:24:38.651Z,2.30
2022-12-20T11:25:38.609Z,2.40
2022-12-20T11:26:38.572Z,2.20
2022-12-20T11:27:38.538Z,2.10
2022-12-20T11:28:38.489Z,1.90
2022-12-20T11:29:38.444Z,2.10
2022-12-20T11:30:38.398Z,2.20
2022-12-20T11:31:38.438Z,2.30
2022-12-20T11:32:43.046Z,2.30
2022-12-20T11:33:38.285Z,2.00
2022-12-20T11:34:38.249Z,2.30
2022-12-20T11:35:38.205Z,2.40
2022-12-20T11:36:38.172Z,2.10
2022-12-20T11:37:38.156Z,2.50
2022-12-20T11:38:38.085Z,2.10
2022-12-20T11:39:38.070Z,2.10
2022-12-20T11:40:38.009Z,2.20
2022-12-20T11:41:37.973Z,2.00
2022-12-20T11:42:37.930Z,2.20
2022-12-20T11:44:00.890Z,2.10
2022-12-20T11:44:41.718Z,1.90
2022-12-20T11:45:37.811Z,2.00
2022-12-20T11:46:37.807Z,2.40
2022-12-20T11:47:37.723Z,2.40
2022-12-20T11:48:37.682Z,2.20
2022-12-20T11:49:37.662Z,2.30
2022-12-20T11:50:37.597Z,2.40
2022-12-20T11:51:37.578Z,2.30
2022-12-20T11:52:37.517Z,2.30
2022-12-20T11:53:37.485Z,2.10
2022-12-20T11:54:37.484Z,2.10
2022-12-20T11:55:37.413Z,2.30
2022-12-20T11:56:43.551Z,10.80
2022-12-20T11:57:55.231Z,2.20
2022-12-20T11:58:37.281Z,22.40
2022-12-20T11:59:37.290Z,2.40
2022-12-20T12:00:37.219Z,8.40
2022-12-20T12:01:37.332Z,2.40
2022-12-20T12:02:37.273Z,4.70
2022-12-20T12:03:37.099Z,6.70
2022-12-20T12:04:37.051Z,3.10
2022-12-20T12:05:37.021Z,10.00
2022-12-20T12:06:36.966Z,2.80
2022-12-20T12:07:36.924Z,4.90
2022-12-20T12:08:36.883Z,4.50
2022-12-20T12:09:36.849Z,2.40
2022-12-20T12:10:36.801Z,2.30
2022-12-20T12:12:36.717Z,2.20
2022-12-20T12:13:36.682Z,2.40
2022-12-20T12:14:36.647Z,2.50
2022-12-20T12:15:36.614Z,2.30
2022-12-20T12:16:36.623Z,2.30
2022-12-20T12:17:36.534Z,8.50
2022-12-20T12:18:36.476Z,3.90
2022-12-20T12:19:36.437Z,3.10
2022-12-20T12:20:36.400Z,3.40
2022-12-20T12:21:36.359Z,2.40
2022-12-20T12:22:36.317Z,3.80
2022-12-20T12:23:36.296Z,2.30
2022-12-20T12:24:36.242Z,2.40
2022-12-20T12:25:36.197Z,5.00
2022-12-20T12:26:36.161Z,2.70
2022-12-20T12:27:36.122Z,2.60
2022-12-20T12:28:36.093Z,2.40
2022-12-20T12:29:36.052Z,2.60
2022-12-20T12:30:35.995Z,2.80
2022-12-20T12:31:35.988Z,2.40
2022-12-20T12:32:35.917Z,2.30
2022-12-20T12:33:38.784Z,2.70
2022-12-20T12:34:35.848Z,2.60
2022-12-20T12:35:35.796Z,3.00
2022-12-20T12:36:35.783Z,2.80
2022-12-20T12:37:35.714Z,2.60
2022-12-20T12:38:35.674Z,2.70
2022-12-20T12:39:35.653Z,2.70
2022-12-20T12:40:35.613Z,2.60
2022-12-20T12:41:35.563Z,2.40
2022-12-20T12:42:35.530Z,3.20
2022-12-20T12:43:35.511Z,3.00
2022-12-20T12:44:35.438Z,2.80
2022-12-20T12:45:35.478Z,2.80
2022-12-20T12:46:35.483Z,3.00
2022-12-20T12:47:35.320Z,2.70
2022-12-20T12:48:35.275Z,2.70
2022-12-20T12:49:35.239Z,2.70
2022-12-20T12:50:35.192Z,2.80
2022-12-20T12:51:35.193Z,2.90
2022-12-20T12:52:36.046Z,2.70
2022-12-20T12:53:35.074Z,2.80
2022-12-20T12:54:35.025Z,3.00
2022-12-20T12:55:34.990Z,3.00
2022-12-20T12:56:44.071Z,3.00
2022-12-20T12:57:34.924Z,2.90
2022-12-20T12:58:34.877Z,3.20
2022-12-20T12:59:34.859Z,3.20
2022-12-20T13:00:34.791Z,3.20
2022-12-20T13:01:34.852Z,3.50
2022-12-20T13:02:34.943Z,3.70
2022-12-20T13:03:34.774Z,4.00
2022-12-20T13:04:34.623Z,3.10
2022-12-20T13:05:34.588Z,3.40
2022-12-20T13:06:34.537Z,3.70
2022-12-20T13:07:34.498Z,3.50
2022-12-20T13:08:34.598Z,3.70
2022-12-20T13:09:34.431Z,3.70
2022-12-20T13:10:34.382Z,3.60
2022-12-20T13:11:34.344Z,3.60
2022-12-20T13:12:34.307Z,3.50
2022-12-20T13:13:34.252Z,3.50
2022-12-20T13:14:34.263Z,3.30
2022-12-20T13:15:34.171Z,3.50
2022-12-20T13:17:09.990Z,3.80
2022-12-20T13:17:34.115Z,3.70
2022-12-20T13:18:34.792Z,3.60
2022-12-20T13:19:34.035Z,3.60
2022-12-20T13:20:33.973Z,3.50